Página principal
METAR-TAF:

METAR-TAF

Aeroportos :

Beirute, Líbano

latitude: 33-49N, longitude: 035-29E, altura: 29 m

Observação actual do tempo

O boletim foi feito há 8 minutos, às 14:00 UTC
Vento 10 kt de nor-nordeste
Temperatura 15°C
Humidade 48%
Pressão 1022 hPa
Visibilidade 10 km ou mais
Poucas nuvensa uma altura de 2700 ft

METAR: OLBA 191400Z 02010KT 9999 FEW027 15/04 Q1022 NOSIG

Hora: 16:08 (14:08 UTC)

Previsão

O boletim foi feito há 4 horas e 8 minutos, às 10:00 UTC
Previsão válida de 19 às 12 UTC a 20 às 18 UTC
Vento 10 kt de nor-nordeste
Visibilidade: 8000 m
Temporariamente
de 19 às 12 UTC a 19 às 16 UTC
Visibilidade: 5000 m
bruma
Tornando-se
de 19 às 18 UTC a 19 às 20 UTC
Vento 4 kt de este
Tornando-se
de 20 às 08 UTC a 20 às 10 UTC
Vento 8 kt de nor-noroeste

TAF: OLBA 191000Z 1912/2018 02010KT 8000 NSC TEMPO 1912/1916 5000 HZ BECMG 1918/1920 10004KT BECMG 2008/2010 34008KT

Observações e previsões do tempo de mais de 4000 aeroportos (mensagens METAR e TAF).

As estações disponíveis são os pontos amarelos e vermelhos sobre o mapa.

Mova o rato sobre o mapa para ver o nome da estação.

Depois clique no ponto para visualizar as observações e previsões meteorológicas.

Para alterar o mapa : clique nos botões verdes com uma cruz preta para aumentar o zoom; no botão verde com uma pitada de zoom; ou nas setas verdes para mapas adjacentes.


METAR-TAF: